Time;durP1;ratioP1;P1;durP2;ratioP2;P2;SDS_P1;SDS_P2;PMS_P1;PMS_P2;Temp;Humidity;BMP_temperature;BMP_pressure;BME280_temperature;BME280_humidity;BME280_pressure;Samples;Min_cycle;Max_cycle;Signal;HPM_P1;HPM_P2
2021/07/08 00:01:52;;;;;;;1999.90;999.90;;;6.90;99.90;;;;;;5071159;28;20186;-44
2021/07/08 00:04:19;;;;;;;1999.90;999.90;;;6.80;99.90;;;;;;5071624;28;20315;-44
2021/07/08 00:06:46;;;;;;;1999.90;999.90;;;6.70;99.90;;;;;;5071129;28;20693;-46
2021/07/08 00:09:14;;;;;;;1999.90;999.90;;;6.70;99.90;;;;;;5071479;28;20182;-44
2021/07/08 00:11:41;;;;;;;1999.90;999.90;;;6.70;99.90;;;;;;5049817;28;20225;-44
2021/07/08 00:14:07;;;;;;;1999.90;999.90;;;6.60;99.90;;;;;;5051314;28;20624;-44
2021/07/08 00:16:36;;;;;;;1999.90;999.90;;;6.50;99.90;;;;;;5051481;28;20176;-44
2021/07/08 00:19:05;;;;;;;1999.90;999.90;;;6.50;99.90;;;;;;5051408;28;20204;-44
2021/07/08 00:21:33;;;;;;;1999.90;999.90;;;6.60;99.90;;;;;;5051040;28;20180;-44
2021/07/08 00:23:59;;;;;;;1999.90;999.90;;;6.50;99.90;;;;;;5051316;28;20212;-44
2021/07/08 00:26:26;;;;;;;1999.90;999.90;;;6.60;99.90;;;;;;5051331;28;20207;-44
2021/07/08 00:28:53;;;;;;;1999.90;999.90;;;6.60;99.90;;;;;;5050747;28;20173;-44
2021/07/08 00:31:20;;;;;;;1999.90;999.90;;;6.50;99.90;;;;;;5051497;28;20172;-44
2021/07/08 00:33:48;;;;;;;1999.90;999.90;;;6.50;99.90;;;;;;5051647;28;20758;-44
2021/07/08 00:36:15;;;;;;;1999.90;999.90;;;6.50;99.90;;;;;;5054967;28;20163;-44
2021/07/08 00:38:42;;;;;;;1999.90;999.90;;;6.50;99.90;;;;;;5055098;28;20537;-44
2021/07/08 00:41:09;;;;;;;1999.90;999.90;;;6.50;99.90;;;;;;5054774;28;20164;-44
2021/07/08 00:43:35;;;;;;;1999.90;999.90;;;6.50;99.90;;;;;;5054966;28;20205;-44
2021/07/08 00:46:04;;;;;;;1999.90;999.90;;;6.60;99.90;;;;;;5054992;28;20169;-44
2021/07/08 00:48:31;;;;;;;1999.90;999.90;;;6.50;99.90;;;;;;5054639;28;20279;-44
2021/07/08 00:50:58;;;;;;;1999.90;999.90;;;6.50;99.90;;;;;;5054705;28;20291;-44
2021/07/08 00:53:24;;;;;;;1999.90;999.90;;;6.60;99.90;;;;;;5070439;28;20643;-44
2021/07/08 00:55:59;;;;;;;1999.90;999.90;;;6.50;99.90;;;;;;5054600;28;20165;-44
2021/07/08 00:58:26;;;;;;;1999.90;999.90;;;6.50;99.90;;;;;;5055093;28;20526;-44
2021/07/08 01:00:52;;;;;;;1999.90;999.90;;;6.40;99.90;;;;;;5054314;28;20176;-44
2021/07/08 01:03:20;;;;;;;1999.90;999.90;;;6.50;99.90;;;;;;5054331;28;20601;-43
2021/07/08 01:05:50;;;;;;;1999.90;999.90;;;6.50;99.90;;;;;;5054781;28;20177;-44
2021/07/08 01:08:18;;;;;;;1999.90;999.90;;;6.50;99.90;;;;;;5054148;28;20169;-44
2021/07/08 01:10:46;;;;;;;1999.90;999.90;;;6.50;99.90;;;;;;5054270;28;20260;-44
2021/07/08 01:13:14;;;;;;;1999.90;999.90;;;6.50;99.90;;;;;;5072231;28;20216;-44
2021/07/08 01:15:41;;;;;;;1999.90;999.90;;;6.40;99.90;;;;;;5074093;28;20180;-44
2021/07/08 01:18:08;;;;;;;1999.90;999.90;;;6.40;99.90;;;;;;5074393;28;20200;-44
2021/07/08 01:20:36;;;;;;;1999.90;999.90;;;6.40;99.90;;;;;;5074270;28;20254;-44
2021/07/08 01:23:03;;;;;;;1999.90;999.90;;;6.30;99.90;;;;;;5074354;28;20515;-44
2021/07/08 01:25:33;;;;;;;1999.90;999.90;;;6.30;99.90;;;;;;5074332;28;20171;-45
2021/07/08 01:28:03;;;;;;;1999.90;999.90;;;6.20;99.90;;;;;;5074138;28;20689;-44
2021/07/08 01:30:30;;;;;;;1999.90;999.90;;;6.20;99.90;;;;;;5074156;28;20525;-44
2021/07/08 01:32:59;;;;;;;1999.90;999.90;;;6.10;99.90;;;;;;5074208;28;20173;-45
2021/07/08 01:35:26;;;;;;;1999.90;999.90;;;6.10;99.90;;;;;;5074342;28;20177;-44
2021/07/08 01:37:52;;;;;;;1999.90;999.90;;;6.00;99.90;;;;;;5073705;28;20168;-44
2021/07/08 01:40:20;;;;;;;1999.90;999.90;;;5.90;99.90;;;;;;5074206;28;20169;-44
2021/07/08 01:42:47;;;;;;;1999.90;999.90;;;5.80;99.90;;;;;;5073468;28;20650;-46
2021/07/08 01:45:17;;;;;;;1999.90;999.90;;;5.80;99.90;;;;;;5072434;28;20635;-44
2021/07/08 01:47:46;;;;;;;1999.90;999.90;;;5.70;99.90;;;;;;5073833;28;20643;-44
2021/07/08 01:50:15;;;;;;;1999.90;999.90;;;5.70;99.90;;;;;;5073383;28;20180;-44
2021/07/08 01:52:42;;;;;;;1999.90;999.90;;;5.70;99.90;;;;;;5073433;28;20178;-44
2021/07/08 01:55:10;;;;;;;1999.90;999.90;;;5.60;99.90;;;;;;5073777;28;20171;-44
2021/07/08 01:57:42;;;;;;;1999.90;999.90;;;5.60;99.90;;;;;;5073608;28;20165;-44
2021/07/08 02:00:11;;;;;;;1999.90;999.90;;;5.60;99.90;;;;;;5073483;28;20191;-44
2021/07/08 02:02:38;;;;;;;1999.90;999.90;;;5.70;99.90;;;;;;5073438;28;20174;-44
2021/07/08 02:05:06;;;;;;;1999.90;999.90;;;5.80;99.90;;;;;;5073188;28;20565;-44
2021/07/08 02:07:33;;;;;;;1999.90;999.90;;;5.90;99.90;;;;;;5073484;28;20230;-44
2021/07/08 02:10:00;;;;;;;1999.90;999.90;;;5.90;99.90;;;;;;5073302;28;20248;-45
2021/07/08 02:12:27;;;;;;;1999.90;999.90;;;5.90;99.90;;;;;;5072809;28;20316;-44
2021/07/08 02:14:54;;;;;;;1999.90;999.90;;;5.90;99.90;;;;;;5073186;28;20180;-44
2021/07/08 02:17:21;;;;;;;1999.90;999.90;;;5.90;99.90;;;;;;5071607;28;20311;-44
2021/07/08 02:19:48;;;;;;;1999.90;999.90;;;6.00;99.90;;;;;;5073031;28;20690;-44
2021/07/08 02:22:15;;;;;;;1999.90;999.90;;;6.10;99.90;;;;;;5073402;28;20647;-44
2021/07/08 02:24:42;;;;;;;1999.90;999.90;;;6.20;99.90;;;;;;5073000;28;20212;-44
2021/07/08 02:27:09;;;;;;;1999.90;999.90;;;6.20;99.90;;;;;;5073256;28;20665;-44
2021/07/08 02:29:35;;;;;;;1999.90;999.90;;;6.30;99.90;;;;;;5072930;28;20180;-44
2021/07/08 02:32:03;;;;;;;1999.90;999.90;;;6.30;99.90;;;;;;5072769;28;20194;-44
2021/07/08 02:34:29;;;;;;;1999.90;999.90;;;6.30;99.90;;;;;;5072938;28;20168;-44
2021/07/08 02:36:56;;;;;;;1999.90;999.90;;;6.20;99.90;;;;;;5072912;28;20623;-44
2021/07/08 02:39:23;;;;;;;1999.90;999.90;;;6.30;99.90;;;;;;5072751;28;20179;-44
2021/07/08 02:41:50;;;;;;;1999.90;999.90;;;6.40;99.90;;;;;;5072821;28;20166;-44
2021/07/08 02:44:17;;;;;;;1999.90;999.90;;;6.30;99.90;;;;;;5072464;28;20205;-44
2021/07/08 02:46:43;;;;;;;1999.90;999.90;;;6.30;99.90;;;;;;5072200;28;20164;-44
2021/07/08 02:49:10;;;;;;;1999.90;999.90;;;6.30;99.90;;;;;;5072893;28;20536;-44
2021/07/08 02:51:37;;;;;;;1999.90;999.90;;;6.20;99.90;;;;;;5072296;28;20167;-44
2021/07/08 02:54:04;;;;;;;1999.90;999.90;;;6.30;99.90;;;;;;5072363;28;20179;-44
2021/07/08 02:56:31;;;;;;;1999.90;999.90;;;6.20;99.90;;;;;;5072601;28;20182;-43
2021/07/08 02:58:58;;;;;;;1999.90;999.90;;;6.30;99.90;;;;;;5072141;28;20200;-44
2021/07/08 03:01:24;;;;;;;1999.90;999.90;;;6.30;99.90;;;;;;5072284;28;20257;-44
2021/07/08 03:03:51;;;;;;;1999.90;999.90;;;6.20;99.90;;;;;;5072175;28;20332;-44
2021/07/08 03:06:18;;;;;;;1999.90;999.90;;;6.10;99.90;;;;;;5072151;28;20546;-44
2021/07/08 03:08:45;;;;;;;1999.90;999.90;;;6.00;99.90;;;;;;5072060;28;20179;-44
2021/07/08 03:11:12;;;;;;;1999.90;999.90;;;6.00;99.90;;;;;;5072201;28;20543;-44
2021/07/08 03:13:38;;;;;;;1999.90;999.90;;;6.20;99.90;;;;;;5072013;28;20172;-46
2021/07/08 03:16:06;;;;;;;1999.90;999.90;;;6.30;99.90;;;;;;5071992;28;20179;-49
2021/07/08 03:18:33;;;;;;;1999.90;999.90;;;6.20;99.90;;;;;;5071903;28;20160;-43
2021/07/08 03:21:00;;;;;;;1999.90;999.90;;;6.10;99.90;;;;;;5072011;28;20204;-43
2021/07/08 03:23:26;;;;;;;1999.90;999.90;;;6.10;99.90;;;;;;5072144;28;20210;-43
2021/07/08 03:25:53;;;;;;;1999.90;999.90;;;6.10;99.90;;;;;;5071688;28;20219;-48
2021/07/08 03:28:20;;;;;;;1999.90;999.90;;;6.10;99.90;;;;;;5071746;28;20176;-43
2021/07/08 03:30:47;;;;;;;1999.90;999.90;;;6.10;99.90;;;;;;5072111;28;20170;-43
2021/07/08 03:33:13;;;;;;;1999.90;999.90;;;6.20;99.90;;;;;;5071460;28;20252;-43
2021/07/08 03:35:40;;;;;;;1999.90;999.90;;;6.30;99.90;;;;;;5071741;28;20164;-44
2021/07/08 03:38:07;;;;;;;1999.90;999.90;;;6.30;99.90;;;;;;5071784;28;20181;-45
2021/07/08 03:40:34;;;;;;;1999.90;999.90;;;6.30;99.90;;;;;;5071521;28;20266;-43
2021/07/08 03:43:01;;;;;;;1999.90;999.90;;;6.20;99.90;;;;;;5071694;28;20182;-43
2021/07/08 03:45:28;;;;;;;1999.90;999.90;;;6.20;99.90;;;;;;5071771;28;20169;-43
2021/07/08 03:47:55;;;;;;;1999.90;999.90;;;6.20;99.90;;;;;;5071541;28;20653;-43
2021/07/08 03:50:22;;;;;;;1999.90;999.90;;;6.10;99.90;;;;;;5071578;28;20176;-44
2021/07/08 03:52:49;;;;;;;1999.90;999.90;;;6.10;99.90;;;;;;5071595;28;20190;-43
2021/07/08 03:55:19;;;;;;;1999.90;999.90;;;6.10;99.90;;;;;;5071459;28;20170;-45
2021/07/08 03:57:57;;;;;;;1999.90;999.90;;;6.10;99.90;;;;;;5071450;28;20636;-43
2021/07/08 04:00:34;;;;;;;1999.90;999.90;;;6.00;99.90;;;;;;5071491;28;20246;-43
2021/07/08 04:03:07;;;;;;;1999.90;999.90;;;6.10;99.90;;;;;;5071247;28;20159;-43
2021/07/08 04:05:34;;;;;;;1999.90;999.90;;;6.10;99.90;;;;;;5071687;28;20668;-43
2021/07/08 04:08:02;;;;;;;1999.90;999.90;;;6.10;99.90;;;;;;5070644;28;20177;-43
2021/07/08 04:10:30;;;;;;;1999.90;999.90;;;6.10;99.90;;;;;;5071077;28;20192;-43
2021/07/08 04:12:56;;;;;;;1999.90;999.90;;;6.10;99.90;;;;;;5070898;28;20231;-43
2021/07/08 04:15:24;;;;;;;1999.90;999.90;;;6.10;99.90;;;;;;5071190;28;20222;-43
2021/07/08 04:17:51;;;;;;;1999.90;999.90;;;6.10;99.90;;;;;;5071172;28;20172;-43
2021/07/08 04:20:22;;;;;;;1999.90;999.90;;;6.20;99.90;;;;;;5071129;28;20623;-43
2021/07/08 04:22:49;;;;;;;1999.90;999.90;;;6.10;99.90;;;;;;5070630;28;20171;-43
2021/07/08 04:25:17;;;;;;;1999.90;999.90;;;6.10;99.90;;;;;;5070971;28;20192;-44
2021/07/08 04:27:45;;;;;;;1999.90;999.90;;;6.10;99.90;;;;;;5071270;28;20157;-43
2021/07/08 04:30:15;;;;;;;1999.90;999.90;;;6.20;99.90;;;;;;5070728;28;20527;-43
2021/07/08 04:32:42;;;;;;;1999.90;999.90;;;6.20;99.90;;;;;;5071257;28;20168;-45
2021/07/08 04:35:10;;;;;;;1999.90;999.90;;;6.40;99.90;;;;;;5070802;28;20173;-43
2021/07/08 04:37:44;;;;;;;1999.90;999.90;;;6.70;99.90;;;;;;5070645;28;20772;-43
2021/07/08 04:40:16;;;;;;;1999.90;999.90;;;6.90;99.90;;;;;;5071373;28;20167;-43
2021/07/08 04:42:43;;;;;;;1999.90;999.90;;;7.10;99.90;;;;;;5070629;28;20171;-44
2021/07/08 04:45:11;;;;;;;1999.90;999.90;;;7.30;99.90;;;;;;5071034;28;20171;-43
2021/07/08 04:47:39;;;;;;;1999.90;999.90;;;7.60;99.90;;;;;;5070883;28;20180;-43
2021/07/08 04:50:09;;;;;;;1999.90;999.90;;;7.90;99.90;;;;;;5070801;28;20203;-44
2021/07/08 04:52:37;;;;;;;1999.90;999.90;;;8.20;99.90;;;;;;5070677;28;20171;-44
2021/07/08 04:55:05;;;;;;;1999.90;999.90;;;8.60;99.90;;;;;;5069462;28;20322;-43
2021/07/08 04:57:32;;;;;;;1999.90;999.90;;;8.80;99.90;;;;;;5070584;28;20169;-44
2021/07/08 04:59:59;;;;;;;1999.90;999.90;;;9.10;99.90;;;;;;5071462;28;20243;-43
2021/07/08 05:02:26;;;;;;;1999.90;999.90;;;9.20;99.90;;;;;;5070558;28;20169;-43
2021/07/08 05:04:53;;;;;;;1999.90;999.90;;;9.40;99.90;;;;;;5070251;28;20540;-43
2021/07/08 05:07:20;;;;;;;1999.90;999.90;;;9.40;99.90;;;;;;5070843;28;20200;-43
2021/07/08 05:09:46;;;;;;;1999.90;999.90;;;9.40;99.90;;;;;;5070334;28;20168;-43
2021/07/08 05:12:13;;;;;;;1999.90;999.90;;;9.50;99.90;;;;;;5070398;28;20264;-43
2021/07/08 05:14:40;;;;;;;1999.90;999.90;;;9.50;99.90;;;;;;5070538;28;20200;-43
2021/07/08 05:17:07;;;;;;;1999.90;999.90;;;9.40;99.90;;;;;;5070467;28;20198;-42
2021/07/08 05:19:34;;;;;;;1999.90;999.90;;;9.40;99.90;;;;;;5071289;28;20167;-44
2021/07/08 05:22:00;;;;;;;1999.90;999.90;;;9.30;99.90;;;;;;5074304;28;20669;-43
2021/07/08 05:24:28;;;;;;;1999.90;999.90;;;9.30;99.90;;;;;;5074059;28;20583;-43
2021/07/08 05:26:55;;;;;;;1999.90;999.90;;;9.30;99.90;;;;;;5073860;28;20665;-43
2021/07/08 05:29:22;;;;;;;1999.90;999.90;;;9.20;99.90;;;;;;5074059;28;20716;-44
2021/07/08 05:31:50;;;;;;;1999.90;999.90;;;9.30;99.90;;;;;;5073702;28;20576;-43
2021/07/08 05:34:17;;;;;;;1999.90;999.90;;;9.30;99.90;;;;;;5073995;28;20176;-43
2021/07/08 05:36:44;;;;;;;1999.90;999.90;;;9.40;99.90;;;;;;5073755;28;20164;-43
2021/07/08 05:39:11;;;;;;;1999.90;999.90;;;9.50;99.90;;;;;;5073569;28;20655;-43
2021/07/08 05:41:38;;;;;;;1999.90;999.90;;;9.60;99.90;;;;;;5074093;28;20192;-43
2021/07/08 05:44:06;;;;;;;1999.90;999.90;;;9.70;99.90;;;;;;5073222;28;20208;-43
2021/07/08 05:46:33;;;;;;;1999.90;999.90;;;9.80;99.90;;;;;;5073627;28;20168;-44
2021/07/08 05:49:00;;;;;;;1999.90;999.90;;;9.90;99.90;;;;;;5073702;28;20172;-48
2021/07/08 05:51:27;;;;;;;1999.90;999.90;;;9.90;99.90;;;;;;5055160;28;20267;-44
2021/07/08 05:53:56;;;;;;;1999.90;999.90;;;10.00;99.90;;;;;;5073315;28;20184;-44
2021/07/08 05:56:23;;;;;;;1999.90;999.90;;;10.00;99.90;;;;;;5073229;28;20180;-44
2021/07/08 05:58:49;;;;;;;1999.90;999.90;;;10.00;99.90;;;;;;5073148;28;20416;-43
2021/07/08 06:01:16;;;;;;;1999.90;999.90;;;10.00;99.90;;;;;;5073240;28;20558;-47
2021/07/08 06:03:43;;;;;;;1999.90;999.90;;;10.00;99.90;;;;;;5072391;28;20614;-44
2021/07/08 06:06:10;;;;;;;1999.90;999.90;;;10.00;99.90;;;;;;5073105;28;20184;-44
2021/07/08 06:08:36;;;;;;;1999.90;999.90;;;10.10;99.90;;;;;;5073334;28;20161;-44
2021/07/08 06:11:03;;;;;;;1999.90;999.90;;;10.10;99.90;;;;;;5073207;28;20173;-44
2021/07/08 06:13:30;;;;;;;1999.90;999.90;;;10.10;99.90;;;;;;5032821;28;20237;-45
2021/07/08 06:15:57;;;;;;;1999.90;999.90;;;10.10;99.90;;;;;;5033326;28;20189;-46
2021/07/08 06:18:23;;;;;;;1999.90;999.90;;;10.00;99.90;;;;;;5032736;28;20182;-45
2021/07/08 06:20:50;;;;;;;1999.90;999.90;;;10.10;99.90;;;;;;5032705;28;20227;-43
2021/07/08 06:23:19;;;;;;;1999.90;999.90;;;10.30;99.90;;;;;;5033203;28;20212;-47
2021/07/08 06:25:47;;;;;;;1999.90;999.90;;;10.20;99.90;;;;;;5032753;28;20687;-42
2021/07/08 06:28:15;;;;;;;1999.90;999.90;;;10.20;99.90;;;;;;5032896;28;20178;-45
2021/07/08 06:30:43;;;;;;;1999.90;999.90;;;10.20;99.90;;;;;;5032733;28;20227;-43
2021/07/08 06:33:10;;;;;;;1999.90;999.90;;;10.30;99.90;;;;;;5031824;28;20174;-40
2021/07/08 06:35:37;;;;;;;1999.90;999.90;;;10.20;99.90;;;;;;5032739;28;20253;-40
2021/07/08 06:38:04;;;;;;;1999.90;999.90;;;10.40;99.90;;;;;;5032935;28;20176;-43
2021/07/08 06:40:31;;;;;;;1999.90;999.90;;;10.50;99.90;;;;;;5032153;28;20228;-47
2021/07/08 06:42:58;;;;;;;1999.90;999.90;;;10.70;99.90;;;;;;5032258;28;20185;-42
2021/07/08 06:45:26;;;;;;;1999.90;999.90;;;11.00;99.90;;;;;;5032312;28;20541;-41
2021/07/08 06:48:01;;;;;;;1999.90;999.90;;;10.80;99.90;;;;;;5031769;28;20185;-51
2021/07/08 06:50:29;;;;;;;1999.90;999.90;;;11.00;99.90;;;;;;5032791;28;20173;-49
2021/07/08 06:52:56;;;;;;;1999.90;999.90;;;11.20;99.90;;;;;;5031804;28;20269;-60
2021/07/08 06:55:22;;;;;;;1999.90;999.90;;;11.00;99.90;;;;;;5032333;28;20174;-48
2021/07/08 06:57:52;;;;;;;1999.90;999.90;;;11.00;99.90;;;;;;5032232;28;20188;-57
2021/07/08 07:00:30;;;;;;;1999.90;999.90;;;11.80;99.90;;;;;;5032237;28;20529;-42
2021/07/08 07:02:58;;;;;;;1999.90;999.90;;;11.50;99.90;;;;;;5032239;28;20181;-43
2021/07/08 07:05:27;;;;;;;1999.90;999.90;;;11.20;99.90;;;;;;5031691;28;20177;-40
2021/07/08 07:07:54;;;;;;;1999.90;999.90;;;11.00;99.90;;;;;;5031455;28;20177;-46
2021/07/08 07:10:23;;;;;;;1999.90;999.90;;;10.80;99.90;;;;;;5032236;28;20169;-42
2021/07/08 07:12:55;;;;;;;1999.90;999.90;;;10.80;99.90;;;;;;5060580;28;20238;-43
2021/07/08 07:15:24;;;;;;;1999.90;999.90;;;10.80;99.90;;;;;;5071629;28;20218;-43
2021/07/08 07:17:51;;;;;;;1999.90;999.90;;;10.80;99.90;;;;;;5071990;28;20168;-42
2021/07/08 07:20:19;;;;;;;1999.90;999.90;;;10.90;99.90;;;;;;5069640;28;20241;-45
2021/07/08 07:22:47;;;;;;;1999.90;999.90;;;10.90;99.90;;;;;;5070924;28;20183;-46
2021/07/08 07:25:24;;;;;;;1999.90;999.90;;;10.80;99.90;;;;;;5071022;28;20677;-44
2021/07/08 07:27:52;;;;;;;1999.90;999.90;;;10.90;99.90;;;;;;5071164;28;20780;-48
2021/07/08 07:30:21;;;;;;;1999.90;999.90;;;10.90;99.90;;;;;;5070757;28;20261;-46
2021/07/08 07:32:48;;;;;;;1999.90;999.90;;;11.00;99.90;;;;;;5069443;28;20238;-50
2021/07/08 07:35:15;;;;;;;1999.90;999.90;;;11.00;99.90;;;;;;5070082;28;20176;-51
2021/07/08 07:37:42;;;;;;;1999.90;999.90;;;11.30;99.90;;;;;;5053161;28;20634;-43
2021/07/08 07:40:09;;;;;;;1999.90;999.90;;;11.30;99.90;;;;;;5071307;28;20196;-44
2021/07/08 07:42:37;;;;;;;1999.90;999.90;;;11.30;99.90;;;;;;5070438;28;20186;-43
2021/07/08 07:45:05;;;;;;;1999.90;999.90;;;11.80;99.90;;;;;;5070764;28;20249;-52
2021/07/08 07:47:32;;;;;;;1999.90;999.90;;;11.60;99.90;;;;;;5071342;28;20173;-56
2021/07/08 07:50:00;;;;;;;1999.90;999.90;;;12.30;99.90;;;;;;5070871;28;20259;-44
2021/07/08 07:52:27;;;;;;;1999.90;999.90;;;12.40;99.90;;;;;;5071258;28;20172;-51
2021/07/08 07:54:54;;;;;;;1999.90;999.90;;;12.00;99.90;;;;;;5070388;28;20164;-61
2021/07/08 07:57:21;;;;;;;1999.90;999.90;;;11.80;99.90;;;;;;5070888;28;20177;-57
2021/07/08 07:59:49;;;;;;;1999.90;999.90;;;11.80;99.90;;;;;;5070963;28;20176;-59
2021/07/08 08:02:17;;;;;;;1999.90;999.90;;;12.30;99.90;;;;;;5070443;28;20540;-57
2021/07/08 08:04:53;;;;;;;1999.90;999.90;;;12.30;99.90;;;;;;5070668;28;20204;-49
2021/07/08 08:10:06;;;;;;;1999.90;999.90;;;12.00;99.90;;;;;;5070759;28;20601;-49
2021/07/08 08:12:34;;;;;;;1999.90;999.90;;;12.00;99.90;;;;;;5070850;28;20646;-46
2021/07/08 08:15:04;;;;;;;1999.90;999.90;;;12.00;99.90;;;;;;5070430;28;20175;-44
2021/07/08 08:17:33;;;;;;;1999.90;999.90;;;12.20;99.90;;;;;;5070434;28;20239;-45
2021/07/08 08:19:59;;;;;;;1999.90;999.90;;;12.40;99.90;;;;;;5071368;28;20160;-57
2021/07/08 08:22:26;;;;;;;1999.90;999.90;;;12.40;99.90;;;;;;5070628;28;20176;-44
2021/07/08 08:24:53;;;;;;;1999.90;999.90;;;12.30;99.90;;;;;;5070556;28;20201;-46
2021/07/08 08:27:21;;;;;;;1999.90;999.90;;;12.70;99.90;;;;;;5070837;28;20191;-43
2021/07/08 08:29:48;;;;;;;1999.90;999.90;;;12.70;99.90;;;;;;5070442;28;20211;-44
2021/07/08 08:32:15;;;;;;;1999.90;999.90;;;12.60;99.90;;;;;;5070589;28;20165;-45
2021/07/08 08:34:42;;;;;;;1999.90;999.90;;;12.50;99.90;;;;;;5070777;28;20578;-42
2021/07/08 08:37:09;;;;;;;1999.90;999.90;;;12.50;99.90;;;;;;5070709;28;20161;-43
2021/07/08 08:39:35;;;;;;;1999.90;999.90;;;12.60;99.90;;;;;;5070714;28;20168;-44
2021/07/08 08:42:07;;;;;;;1999.90;999.90;;;12.60;99.90;;;;;;5070424;28;20543;-44
2021/07/08 08:44:34;;;;;;;1999.90;999.90;;;12.70;99.90;;;;;;5070174;28;20654;-47
2021/07/08 08:47:00;;;;;;;1999.90;999.90;;;12.60;99.90;;;;;;5070643;28;20172;-44
2021/07/08 08:49:27;;;;;;;1999.90;999.90;;;12.70;99.90;;;;;;5070151;28;20634;-42
2021/07/08 08:51:54;;;;;;;1999.90;999.90;;;12.70;99.90;;;;;;5070320;28;20168;-42
2021/07/08 08:54:21;;;;;;;1999.90;999.90;;;12.60;99.90;;;;;;5070963;28;20169;-41
2021/07/08 08:56:48;;;;;;;1999.90;999.90;;;12.70;99.90;;;;;;5073819;28;20211;-48
2021/07/08 08:59:15;;;;;;;1999.90;999.90;;;12.80;99.90;;;;;;5074147;28;20208;-53
2021/07/08 09:01:42;;;;;;;1999.90;999.90;;;12.90;99.90;;;;;;5074408;28;20536;-45
2021/07/08 09:04:34;;;;;;;1999.90;999.90;;;12.80;99.90;;;;;;5073902;28;20207;-43
2021/07/08 09:07:22;;;;;;;1999.90;999.90;;;12.80;99.90;;;;;;5074198;28;20161;-53
2021/07/08 09:10:00;;;;;;;1999.90;999.90;;;12.80;99.90;;;;;;5074058;28;20161;-58
2021/07/08 09:12:27;;;;;;;1999.90;999.90;;;12.80;99.90;;;;;;5074150;28;20230;-50
2021/07/08 09:15:15;;;;;;;1999.90;999.90;;;13.20;99.90;;;;;;5060105;28;20173;-52
2021/07/08 09:17:43;;;;;;;1999.90;999.90;;;13.10;99.90;;;;;;5034428;28;20158;-48
2021/07/08 09:20:12;;;;;;;1999.90;999.90;;;13.10;99.90;;;;;;5036243;28;20170;-51
2021/07/08 09:22:40;;;;;;;1999.90;999.90;;;13.10;99.90;;;;;;5052959;28;20246;-57
2021/07/08 09:25:22;;;;;;;1999.90;999.90;;;13.00;99.90;;;;;;5053863;28;20282;-54
2021/07/08 09:27:51;;;;;;;1999.90;999.90;;;13.20;99.90;;;;;;5054007;28;20218;-46
2021/07/08 09:30:31;;;;;;;1999.90;999.90;;;13.40;99.90;;;;;;5053675;28;20177;-58
2021/07/08 09:32:57;;;;;;;1999.90;999.90;;;13.70;99.90;;;;;;5053480;28;20632;-56
2021/07/08 09:35:35;;;;;;;1999.90;999.90;;;14.00;99.90;;;;;;5054187;28;20191;-60
2021/07/08 09:38:13;;;;;;;1999.90;999.90;;;14.10;99.90;;;;;;5053639;28;20169;-48
2021/07/08 09:40:41;;;;;;;1999.90;999.90;;;13.90;99.90;;;;;;5053679;28;20320;-56
2021/07/08 09:43:08;;;;;;;1999.90;999.90;;;13.30;99.90;;;;;;5053272;28;20181;-53
2021/07/08 09:45:46;;;;;;;1999.90;999.90;;;13.10;99.90;;;;;;5053559;28;20264;-41
2021/07/08 09:48:19;;;;;;;1999.90;999.90;;;13.00;99.90;;;;;;5053264;28;20173;-54
2021/07/08 09:50:47;;;;;;;1999.90;999.90;;;12.90;99.90;;;;;;5053673;28;20180;-53
2021/07/08 09:53:23;;;;;;;1999.90;999.90;;;13.30;99.90;;;;;;5053187;28;20162;-52
2021/07/08 09:56:20;;;;;;;1999.90;999.90;;;13.10;99.90;;;;;;5053662;28;20277;-44
2021/07/08 09:58:55;;;;;;;1999.90;999.90;;;13.00;99.90;;;;;;5053065;28;20153;-50
2021/07/08 10:01:22;;;;;;;1999.90;999.90;;;12.80;99.90;;;;;;5053228;28;20628;-52
2021/07/08 10:03:50;;;;;;;1999.90;999.90;;;12.80;99.90;;;;;;5053174;28;20261;-49
2021/07/08 10:06:18;;;;;;;1999.90;999.90;;;12.80;99.90;;;;;;5051602;28;20177;-49
2021/07/08 10:08:46;;;;;;;1999.90;999.90;;;12.40;99.90;;;;;;5053219;28;20549;-52
2021/07/08 10:11:15;;;;;;;1999.90;999.90;;;12.40;99.90;;;;;;5052637;28;20177;-47
2021/07/08 10:13:46;;;;;;;1999.90;999.90;;;12.60;99.90;;;;;;5052776;28;20533;-50
2021/07/08 10:16:15;;;;;;;1999.90;999.90;;;12.60;99.90;;;;;;5053077;28;20161;-58
2021/07/08 10:18:44;;;;;;;1999.90;999.90;;;12.70;99.90;;;;;;5052774;28;20157;-55
2021/07/08 10:21:12;;;;;;;1999.90;999.90;;;12.50;99.90;;;;;;5052767;28;20220;-44
2021/07/08 10:23:40;;;;;;;1999.90;999.90;;;12.50;99.90;;;;;;5053012;28;20555;-47
2021/07/08 10:26:09;;;;;;;1999.90;999.90;;;12.50;99.90;;;;;;5052610;28;20161;-48
2021/07/08 10:28:41;;;;;;;1999.90;999.90;;;12.60;99.90;;;;;;5052963;28;20172;-44
2021/07/08 10:31:08;;;;;;;1999.90;999.90;;;12.70;99.90;;;;;;5052874;28;20529;-44
2021/07/08 10:33:35;;;;;;;1999.90;999.90;;;12.90;99.90;;;;;;5052879;28;20252;-58
2021/07/08 10:36:02;;;;;;;1999.90;999.90;;;13.20;99.90;;;;;;5052512;28;20161;-47
2021/07/08 10:38:31;;;;;;;1999.90;999.90;;;13.50;99.90;;;;;;5052708;28;20169;-50
2021/07/08 10:41:01;;;;;;;1999.90;999.90;;;13.70;99.90;;;;;;5050255;28;20177;-48
2021/07/08 10:43:42;;;;;;;1999.90;999.90;;;13.70;99.90;;;;;;5052691;28;20211;-44
2021/07/08 10:46:14;;;;;;;1999.90;999.90;;;13.80;99.90;;;;;;5052314;28;20169;-59
2021/07/08 10:48:50;;;;;;;1999.90;999.90;;;14.00;99.90;;;;;;5051976;28;20157;-45
2021/07/08 10:51:36;;;;;;;1999.90;999.90;;;14.40;99.90;;;;;;5052578;28;20164;-49
2021/07/08 10:54:28;;;;;;;1999.90;999.90;;;14.10;99.90;;;;;;5051781;28;20636;-45
2021/07/08 10:56:57;;;;;;;1999.90;999.90;;;13.90;99.90;;;;;;5052232;28;20573;-46
2021/07/08 10:59:36;;;;;;;1999.90;999.90;;;13.60;99.90;;;;;;5051969;28;20172;-44
2021/07/08 11:02:03;;;;;;;1999.90;999.90;;;13.50;99.90;;;;;;5051590;28;20604;-44
2021/07/08 11:04:48;;;;;;;1999.90;999.90;;;13.50;99.90;;;;;;5052101;28;20667;-42
2021/07/08 11:07:18;;;;;;;1999.90;999.90;;;13.50;99.90;;;;;;5051560;28;20204;-44
2021/07/08 11:10:01;;;;;;;1999.90;999.90;;;13.60;99.90;;;;;;5051765;28;20187;-44
2021/07/08 11:12:33;;;;;;;1999.90;999.90;;;13.50;99.90;;;;;;5051488;28;20296;-44
2021/07/08 11:15:01;;;;;;;1999.90;999.90;;;13.50;99.90;;;;;;5051165;28;20157;-44
2021/07/08 11:17:41;;;;;;;1999.90;999.90;;;13.50;99.90;;;;;;5051763;28;20166;-45
2021/07/08 11:20:33;;;;;;;1999.90;999.90;;;13.50;99.90;;;;;;5051392;28;20165;-47
2021/07/08 11:23:38;;;;;;;1999.90;999.90;;;13.50;99.90;;;;;;5049705;28;20154;-47
2021/07/08 11:26:07;;;;;;;1999.90;999.90;;;13.40;99.90;;;;;;5049623;28;20189;-47
2021/07/08 11:28:34;;;;;;;1999.90;999.90;;;13.40;99.90;;;;;;5050040;28;20260;-48
2021/07/08 11:31:06;;;;;;;1999.90;999.90;;;13.40;99.90;;;;;;5051691;28;20560;-46
2021/07/08 11:33:38;;;;;;;1999.90;999.90;;;13.40;99.90;;;;;;5051523;28;20529;-46
2021/07/08 11:36:12;;;;;;;1999.90;999.90;;;13.50;99.90;;;;;;5051534;28;20525;-49
2021/07/08 11:38:45;;;;;;;1999.90;999.90;;;13.50;99.90;;;;;;5051717;28;20511;-46
2021/07/08 11:41:14;;;;;;;1999.90;999.90;;;13.60;99.90;;;;;;5051235;28;20158;-48
2021/07/08 11:43:53;;;;;;;1999.90;999.90;;;13.60;99.90;;;;;;5050015;28;20196;-48
2021/07/08 11:46:20;;;;;;;1999.90;999.90;;;13.60;99.90;;;;;;5051615;28;20215;-55
2021/07/08 11:48:49;;;;;;;1999.90;999.90;;;13.60;99.90;;;;;;5051189;28;20165;-45
2021/07/08 11:51:28;;;;;;;1999.90;999.90;;;13.60;99.90;;;;;;5051474;28;20179;-52
2021/07/08 11:53:56;;;;;;;1999.90;999.90;;;13.60;99.90;;;;;;5051319;28;20187;-51
2021/07/08 11:56:25;;;;;;;1999.90;999.90;;;13.70;99.90;;;;;;5051265;28;20173;-52
2021/07/08 11:58:52;;;;;;;1999.90;999.90;;;13.80;99.90;;;;;;5051243;28;20200;-48
2021/07/08 12:01:20;;;;;;;1999.90;999.90;;;13.80;99.90;;;;;;5050913;28;20173;-55
2021/07/08 12:03:50;;;;;;;1999.90;999.90;;;13.80;99.90;;;;;;5050735;28;20667;-48
2021/07/08 12:06:24;;;;;;;1999.90;999.90;;;13.90;99.90;;;;;;5051415;28;20697;-48
2021/07/08 12:08:53;;;;;;;1999.90;999.90;;;13.80;99.90;;;;;;5051163;28;20159;-47
2021/07/08 12:11:28;;;;;;;1999.90;999.90;;;13.90;99.90;;;;;;5050959;28;20165;-46
2021/07/08 12:14:09;;;;;;;1999.90;999.90;;;13.90;99.90;;;;;;5051186;28;20164;-60
2021/07/08 12:16:36;;;;;;;1999.90;999.90;;;14.00;99.90;;;;;;5051344;28;20161;-59